sensor_id;sensor_type;location;lat;lon;timestamp;P1;durP1;ratioP1;P2;durP2;ratioP2
54917;SDS011;40818;50.562;7.454;2023-02-18T00:08:23;1.08;;;0.30;;
54917;SDS011;40818;50.562;7.454;2023-02-18T00:18:26;0.95;;;0.20;;
54917;SDS011;40818;50.562;7.454;2023-02-18T00:28:32;0.50;;;0.10;;
54917;SDS011;40818;50.562;7.454;2023-02-18T00:38:37;0.32;;;0.10;;
54917;SDS011;40818;50.562;7.454;2023-02-18T00:48:43;0.20;;;0.00;;
54917;SDS011;40818;50.562;7.454;2023-02-18T00:58:47;1.17;;;0.10;;
54917;SDS011;40818;50.562;7.454;2023-02-18T01:08:54;0.40;;;0.10;;
54917;SDS011;40818;50.562;7.454;2023-02-18T01:18:57;0.13;;;0.00;;
54917;SDS011;40818;50.562;7.454;2023-02-18T01:29:03;0.45;;;0.00;;
54917;SDS011;40818;50.562;7.454;2023-02-18T01:39:07;0.25;;;0.03;;
54917;SDS011;40818;50.562;7.454;2023-02-18T01:49:14;0.10;;;0.00;;
54917;SDS011;40818;50.562;7.454;2023-02-18T01:59:22;4.85;;;0.10;;
54917;SDS011;40818;50.562;7.454;2023-02-18T02:09:30;0.10;;;0.00;;
54917;SDS011;40818;50.562;7.454;2023-02-18T02:30:30;0.10;;;0.00;;
54917;SDS011;40818;50.562;7.454;2023-02-18T02:40:59;0.00;;;0.00;;
54917;SDS011;40818;50.562;7.454;2023-02-18T02:51:14;0.20;;;0.00;;
54917;SDS011;40818;50.562;7.454;2023-02-18T03:01:29;0.20;;;0.00;;
54917;SDS011;40818;50.562;7.454;2023-02-18T03:11:40;0.10;;;0.00;;
54917;SDS011;40818;50.562;7.454;2023-02-18T03:21:54;0.10;;;0.00;;
54917;SDS011;40818;50.562;7.454;2023-02-18T03:32:02;0.20;;;0.00;;
54917;SDS011;40818;50.562;7.454;2023-02-18T03:42:11;0.10;;;0.00;;
54917;SDS011;40818;50.562;7.454;2023-02-18T03:52:15;0.13;;;0.00;;
54917;SDS011;40818;50.562;7.454;2023-02-18T04:02:21;0.15;;;0.00;;
54917;SDS011;40818;50.562;7.454;2023-02-18T04:12:24;1.20;;;0.00;;
54917;SDS011;40818;50.562;7.454;2023-02-18T04:22:31;0.08;;;0.00;;
54917;SDS011;40818;50.562;7.454;2023-02-18T04:32:34;0.00;;;0.00;;
54917;SDS011;40818;50.562;7.454;2023-02-18T04:42:40;2.10;;;0.22;;
54917;SDS011;40818;50.562;7.454;2023-02-18T04:52:44;0.00;;;0.00;;
54917;SDS011;40818;50.562;7.454;2023-02-18T05:02:50;0.00;;;0.00;;
54917;SDS011;40818;50.562;7.454;2023-02-18T05:12:53;0.00;;;0.00;;
54917;SDS011;40818;50.562;7.454;2023-02-18T05:22:59;0.20;;;0.00;;
54917;SDS011;40818;50.562;7.454;2023-02-18T05:33:03;0.30;;;0.00;;
54917;SDS011;40818;50.562;7.454;2023-02-18T05:43:09;0.08;;;0.00;;
54917;SDS011;40818;50.562;7.454;2023-02-18T05:53:12;0.15;;;0.00;;
54917;SDS011;40818;50.562;7.454;2023-02-18T06:03:18;0.00;;;0.00;;
54917;SDS011;40818;50.562;7.454;2023-02-18T06:13:22;0.20;;;0.00;;
54917;SDS011;40818;50.562;7.454;2023-02-18T06:23:28;0.55;;;0.10;;
54917;SDS011;40818;50.562;7.454;2023-02-18T06:33:31;0.10;;;0.00;;
54917;SDS011;40818;50.562;7.454;2023-02-18T06:43:38;1.20;;;0.40;;
54917;SDS011;40818;50.562;7.454;2023-02-18T06:53:41;1.27;;;0.00;;
54917;SDS011;40818;50.562;7.454;2023-02-18T07:03:48;0.30;;;0.10;;
54917;SDS011;40818;50.562;7.454;2023-02-18T07:13:51;1.73;;;0.50;;
54917;SDS011;40818;50.562;7.454;2023-02-18T07:23:57;0.20;;;0.03;;
54917;SDS011;40818;50.562;7.454;2023-02-18T07:34:01;0.52;;;0.00;;
54917;SDS011;40818;50.562;7.454;2023-02-18T07:44:07;0.00;;;0.00;;
54917;SDS011;40818;50.562;7.454;2023-02-18T07:54:10;0.15;;;0.00;;
54917;SDS011;40818;50.562;7.454;2023-02-18T08:04:16;0.00;;;0.00;;
54917;SDS011;40818;50.562;7.454;2023-02-18T08:14:20;0.15;;;0.00;;
54917;SDS011;40818;50.562;7.454;2023-02-18T08:24:26;0.00;;;0.00;;
54917;SDS011;40818;50.562;7.454;2023-02-18T08:34:29;0.10;;;0.00;;
54917;SDS011;40818;50.562;7.454;2023-02-18T08:44:35;0.00;;;0.00;;
54917;SDS011;40818;50.562;7.454;2023-02-18T08:54:39;0.25;;;0.00;;
54917;SDS011;40818;50.562;7.454;2023-02-18T09:04:48;0.88;;;0.00;;
54917;SDS011;40818;50.562;7.454;2023-02-18T09:14:51;0.13;;;0.00;;
54917;SDS011;40818;50.562;7.454;2023-02-18T09:24:57;0.40;;;0.10;;
54917;SDS011;40818;50.562;7.454;2023-02-18T09:35:01;0.65;;;0.00;;
54917;SDS011;40818;50.562;7.454;2023-02-18T09:45:09;1.65;;;0.10;;
54917;SDS011;40818;50.562;7.454;2023-02-18T09:55:17;0.90;;;0.10;;
54917;SDS011;40818;50.562;7.454;2023-02-18T10:05:25;1.83;;;0.10;;
54917;SDS011;40818;50.562;7.454;2023-02-18T10:15:31;1.80;;;0.15;;
54917;SDS011;40818;50.562;7.454;2023-02-18T10:25:40;1.95;;;0.10;;
54917;SDS011;40818;50.562;7.454;2023-02-18T10:35:47;0.77;;;0.10;;
54917;SDS011;40818;50.562;7.454;2023-02-18T10:45:59;3.67;;;0.10;;
54917;SDS011;40818;50.562;7.454;2023-02-18T10:56:13;1.77;;;0.10;;
54917;SDS011;40818;50.562;7.454;2023-02-18T11:06:40;0.77;;;0.10;;
54917;SDS011;40818;50.562;7.454;2023-02-18T11:16:46;3.03;;;0.20;;
54917;SDS011;40818;50.562;7.454;2023-02-18T11:26:55;3.33;;;0.10;;
54917;SDS011;40818;50.562;7.454;2023-02-18T11:37:07;1.60;;;0.17;;
54917;SDS011;40818;50.562;7.454;2023-02-18T11:47:22;4.63;;;0.20;;
54917;SDS011;40818;50.562;7.454;2023-02-18T11:57:27;1.95;;;0.20;;
54917;SDS011;40818;50.562;7.454;2023-02-18T12:07:38;1.80;;;0.20;;
54917;SDS011;40818;50.562;7.454;2023-02-18T12:17:51;1.38;;;0.20;;
54917;SDS011;40818;50.562;7.454;2023-02-18T12:28:16;0.90;;;0.20;;
54917;SDS011;40818;50.562;7.454;2023-02-18T12:38:45;1.38;;;0.20;;
54917;SDS011;40818;50.562;7.454;2023-02-18T13:10:39;0.50;;;0.20;;
54917;SDS011;40818;50.562;7.454;2023-02-18T13:20:54;1.40;;;0.20;;
54917;SDS011;40818;50.562;7.454;2023-02-18T13:41:28;0.10;;;0.00;;
54917;SDS011;40818;50.562;7.454;2023-02-18T13:51:39;1.65;;;0.20;;
54917;SDS011;40818;50.562;7.454;2023-02-18T14:01:48;0.10;;;0.10;;
54917;SDS011;40818;50.562;7.454;2023-02-18T14:11:55;0.85;;;0.10;;
54917;SDS011;40818;50.562;7.454;2023-02-18T14:22:27;0.50;;;0.10;;
54917;SDS011;40818;50.562;7.454;2023-02-18T14:32:38;0.20;;;0.10;;
54917;SDS011;40818;50.562;7.454;2023-02-18T14:42:43;3.25;;;0.10;;
54917;SDS011;40818;50.562;7.454;2023-02-18T14:52:55;0.28;;;0.03;;
54917;SDS011;40818;50.562;7.454;2023-02-18T15:03:01;0.25;;;0.10;;
54917;SDS011;40818;50.562;7.454;2023-02-18T15:13:07;1.90;;;0.35;;
54917;SDS011;40818;50.562;7.454;2023-02-18T15:23:16;1.27;;;0.10;;
54917;SDS011;40818;50.562;7.454;2023-02-18T15:33:23;0.55;;;0.20;;
54917;SDS011;40818;50.562;7.454;2023-02-18T15:43:27;0.77;;;0.20;;
54917;SDS011;40818;50.562;7.454;2023-02-18T15:53:35;0.57;;;0.10;;
54917;SDS011;40818;50.562;7.454;2023-02-18T16:03:43;0.32;;;0.10;;
54917;SDS011;40818;50.562;7.454;2023-02-18T16:13:50;0.35;;;0.05;;
54917;SDS011;40818;50.562;7.454;2023-02-18T16:23:55;0.50;;;0.10;;
54917;SDS011;40818;50.562;7.454;2023-02-18T16:34:03;0.28;;;0.10;;
54917;SDS011;40818;50.562;7.454;2023-02-18T16:44:08;0.68;;;0.20;;
54917;SDS011;40818;50.562;7.454;2023-02-18T16:54:17;0.25;;;0.10;;
54917;SDS011;40818;50.562;7.454;2023-02-18T17:04:21;0.40;;;0.10;;
54917;SDS011;40818;50.562;7.454;2023-02-18T17:14:27;0.50;;;0.10;;
54917;SDS011;40818;50.562;7.454;2023-02-18T17:24:30;0.85;;;0.30;;
54917;SDS011;40818;50.562;7.454;2023-02-18T17:34:36;0.90;;;0.20;;
54917;SDS011;40818;50.562;7.454;2023-02-18T17:44:40;0.75;;;0.13;;
54917;SDS011;40818;50.562;7.454;2023-02-18T17:54:46;0.70;;;0.20;;
54917;SDS011;40818;50.562;7.454;2023-02-18T18:04:50;1.17;;;0.10;;
54917;SDS011;40818;50.562;7.454;2023-02-18T18:14:56;1.95;;;0.20;;
54917;SDS011;40818;50.562;7.454;2023-02-18T18:25:00;0.32;;;0.10;;
54917;SDS011;40818;50.562;7.454;2023-02-18T18:35:11;0.30;;;0.10;;
54917;SDS011;40818;50.562;7.454;2023-02-18T18:45:22;0.10;;;0.00;;
54917;SDS011;40818;50.562;7.454;2023-02-18T18:55:34;1.30;;;0.30;;
54917;SDS011;40818;50.562;7.454;2023-02-18T19:05:40;1.27;;;0.38;;
54917;SDS011;40818;50.562;7.454;2023-02-18T19:15:47;1.60;;;0.50;;
54917;SDS011;40818;50.562;7.454;2023-02-18T19:25:52;2.97;;;0.80;;
54917;SDS011;40818;50.562;7.454;2023-02-18T19:35:58;1.80;;;0.60;;
54917;SDS011;40818;50.562;7.454;2023-02-18T19:46:06;1.38;;;0.50;;
54917;SDS011;40818;50.562;7.454;2023-02-18T19:56:12;1.92;;;0.50;;
54917;SDS011;40818;50.562;7.454;2023-02-18T20:06:16;1.67;;;0.40;;
54917;SDS011;40818;50.562;7.454;2023-02-18T20:16:24;2.08;;;0.32;;
54917;SDS011;40818;50.562;7.454;2023-02-18T20:26:27;6.05;;;1.00;;
54917;SDS011;40818;50.562;7.454;2023-02-18T20:36:33;1.45;;;0.50;;
54917;SDS011;40818;50.562;7.454;2023-02-18T20:46:37;2.53;;;0.50;;
54917;SDS011;40818;50.562;7.454;2023-02-18T20:56:44;1.50;;;0.30;;
54917;SDS011;40818;50.562;7.454;2023-02-18T21:06:48;2.35;;;0.60;;
54917;SDS011;40818;50.562;7.454;2023-02-18T21:16:54;0.30;;;0.10;;
54917;SDS011;40818;50.562;7.454;2023-02-18T21:26:58;0.77;;;0.20;;
54917;SDS011;40818;50.562;7.454;2023-02-18T21:37:04;1.20;;;0.20;;
54917;SDS011;40818;50.562;7.454;2023-02-18T21:47:08;0.50;;;0.20;;
54917;SDS011;40818;50.562;7.454;2023-02-18T21:57:15;0.85;;;0.28;;
54917;SDS011;40818;50.562;7.454;2023-02-18T22:07:21;0.98;;;0.40;;
54917;SDS011;40818;50.562;7.454;2023-02-18T22:17:29;0.30;;;0.10;;
54917;SDS011;40818;50.562;7.454;2023-02-18T22:27:32;1.80;;;0.40;;
54917;SDS011;40818;50.562;7.454;2023-02-18T22:37:38;2.13;;;0.30;;
54917;SDS011;40818;50.562;7.454;2023-02-18T22:47:41;0.47;;;0.10;;
54917;SDS011;40818;50.562;7.454;2023-02-18T22:57:47;2.20;;;0.10;;
54917;SDS011;40818;50.562;7.454;2023-02-18T23:07:51;0.50;;;0.10;;
54917;SDS011;40818;50.562;7.454;2023-02-18T23:17:58;0.20;;;0.00;;
54917;SDS011;40818;50.562;7.454;2023-02-18T23:28:01;0.73;;;0.17;;
54917;SDS011;40818;50.562;7.454;2023-02-18T23:38:07;0.22;;;0.00;;
54917;SDS011;40818;50.562;7.454;2023-02-18T23:48:11;0.65;;;0.00;;
54917;SDS011;40818;50.562;7.454;2023-02-18T23:58:18;0.00;;;0.00;;
